This is the latest recevied weather packets stored in our database for station/object WP3XM. If no packets are shown the sender has not sent any weather packets the latest 10 day(s).
| Time | Temp. | Humidity | Pressure | Rain* | Wind** | Luminosity | Snow |
|---|---|---|---|---|---|---|---|
| 1777925949 | 27.78° C | 79% | 1016.3 hPa | 0 mm | - | 193 W/m² | - |
| 1777925646 | 27.78° C | 79% | 1016.3 hPa | 0 mm | - | 95 W/m² | - |
| 1777925343 | 27.78° C | 80% | 1016.2 hPa | 0 mm | - | 170 W/m² | - |
| 1777925040 | 27.78° C | 80% | 1016.4 hPa | 0 mm | - | 167 W/m² | - |
| 1777924736 | 27.78° C | 81% | 1016.3 hPa | 0 mm | - | 272 W/m² | - |
| 1777924432 | 27.78° C | 83% | 1016.2 hPa | 0 mm | - | 240 W/m² | - |
| 1777924129 | 27.78° C | 82% | 1016.3 hPa | 0 mm | - | 149 W/m² | - |
| 1777923825 | 28.33° C | 78% | 1016.3 hPa | 0 mm | - | 226 W/m² | - |
| 1777923521 | 27.78° C | 81% | 1016.3 hPa | 0 mm | - | 294 W/m² | - |
| 1777923218 | 27.78° C | 80% | 1016.4 hPa | 0 mm | - | 560 W/m² | - |
| 1777922917 | 28.33° C | 80% | 1016.4 hPa | 0 mm | - | 200 W/m² | - |
| 1777922615 | 28.89° C | 79% | 1016.2 hPa | 0 mm | - | 159 W/m² | - |
| 1777922313 | 28.89° C | 79% | 1016.4 hPa | 0 mm | - | 314 W/m² | - |
| 1777922010 | 27.78° C | 81% | 1016.3 hPa | 0 mm | - | 779 W/m² | - |
| 1777921705 | 28.33° C | 81% | 1016.7 hPa | 0 mm | - | 807 W/m² | - |
| 1777921402 | 27.22° C | 85% | 1016.6 hPa | 0 mm | - | 821 W/m² | - |
| 1777921098 | 27.78° C | 85% | 1016.6 hPa | 0 mm | - | 226 W/m² | - |
| 1777920795 | 27.22° C | 86% | 1016.5 hPa | 1.78 mm | - | 871 W/m² | - |
| 1777920492 | 27.78° C | 83% | 1016.6 hPa | 1.78 mm | - | 208 W/m² | - |
| 1777920188 | 27.78° C | 83% | 1016.5 hPa | 0 mm | - | 1136 W/m² | - |
| 1777919883 | 28.89° C | 78% | 1016.5 hPa | 0 mm | - | 229 W/m² | - |
| 1777919580 | 27.78° C | 81% | 1016.8 hPa | 0 mm | - | 1006 W/m² | - |
| 1777919278 | 27.78° C | 82% | 1016.8 hPa | 0 mm | - | 918 W/m² | - |
| 1777918975 | 27.22° C | 84% | 1016.7 hPa | 0 mm | - | 842 W/m² | - |
| 1777918673 | 27.78° C | 84% | 1017.1 hPa | 0 mm | - | 577 W/m² | - |
* Rain latest hour (hover to see other rain measurements)
** Current wind speed in m/s (hover to see current wind gust speed)